KPZQ METAR Reports


Rogers City, Presque Isle County Airport, MI, United States (KPZQ) 45-24-25N 083-48-46W
Jan 20, 2021 - 01:15 AM EST / 2021.01.20 0615 UTC
Wind: from the W (270 degrees) at 9 MPH (8 KT):0
Visibility: 10 mile(s):0
Sky conditions: overcast
Temperature: 17.4 F (-8.1 C)
Windchill: 6 F (-14 C):1
Dew Point: 11.3 F (-11.5 C)
Relative Humidity: 76%
Pressure (altimeter): 30 in. Hg (1015 hPa)
ob: KPZQ 200615Z AUTO 27008KT 10SM BKN036 OVC042 M08/M11 A3000 RMK AO2 T10811115
cycle: 6

 

Rogers City METAR Meteogram

Weather Chart

Nearby METAR Reports

KPZQ - Rogers City, Michigan, USA
Distance from station: SSW 1mi, 2km
Updated: Wed, 20-Jan-2021 1:15am EST
Overcast
Overcast
 Wind from W
Wind: W 9 mph , 15 km/h
Temperature: 18°F , -8°C
Wind Chill: 7°F , -14°C
Dew Point: 12°F , -11°C
Humidity: 79%
Barometer: 30.00 inHg , 1015.9 hPa
Clouds: Overcast
Visibility: 10 miles , 16 km
Cloud details: Mostly cloudy 3600 ft
Overcast 4200 ft
2021/01/20 06:15 KPZQ 200615Z AUTO 27008KT 10SM BKN036 OVC042 M08/M11 A3000 RMK AO2 T10811115
KAPN - Alpena, Michigan, USA
Distance from station: SSE 27mi, 43km
Updated: Wed, 20-Jan-2021 12:54am EST
NOT Current
Clear
Clear
 Wind from W
Wind: W 6 mph , 9 km/h
Temperature: 16°F , -9°C
Wind Chill: 7°F , -14°C
Dew Point: 10°F , -12°C
Humidity: 79%
Barometer: 29.99 inHg , 1015.6 hPa
Clouds: Clear
Visibility: 10 miles , 16 km
2021/01/20 05:54 KAPN 200554Z 27005KT 10SM CLR M09/M12 A2999 RMK AO2 SLP169 T10941117 11056 21094 50001
 
KSLH - Cheboygan, Michigan, USA
Distance from station: WNW 38mi, 61km
Updated: Wed, 20-Jan-2021 1:15am EST
Overcast
Overcast
 Wind from WNW
Wind: WNW 10 mph , 17 km/h
Temperature: 18°F , -8°C
Wind Chill: 6°F , -14°C
Dew Point: 10°F , -12°C
Humidity: 73%
Barometer: 30.01 inHg , 1016.3 hPa
Clouds: Overcast
Visibility: 10 miles , 16 km
Cloud details: Partly cloudy 2600 ft
Overcast 4100 ft
2021/01/20 06:15 KSLH 200615Z AUTO 29009KT 10SM SCT026 OVC041 M08/M12 A3001 RMK
KDRM - Drummond Is, Michigan, USA
Distance from station: N 40mi, 65km
Updated: Wed, 20-Jan-2021 1:15am EST
Overcast
Overcast
 Wind from NNW
Wind: NNW 3 mph , 6 km/h
Temperature: 16°F , -9°C
Dew Point: 7°F , -14°C
Humidity: 67%
Barometer: 29.99 inHg , 1015.6 hPa
Clouds: Overcast
Visibility: 10 miles , 16 km
Cloud details: Mostly cloudy 3300 ft
Overcast 3900 ft
2021/01/20 06:15 KDRM 200615Z AUTO 33003KT 10SM BKN033 OVC039 M09/M14 A2999 RMK AO2 T10951137
 
KPLN - Pellston, Michigan, USA
Distance from station: WNW 49mi, 79km
Updated: Wed, 20-Jan-2021 12:54am EST
NOT Current
Overcast
Overcast
 Wind from WNW
Wind: WNW 14 mph , 22 km/h
Temperature: 19°F , -7°C
Wind Chill: 5°F , -15°C
Dew Point: 9°F , -13°C
Humidity: 63%
Barometer: 30.02 inHg , 1016.6 hPa
Clouds: Overcast
Visibility: 10 miles , 16 km
Cloud details: Overcast 3900 ft
2021/01/20 05:54 KPLN 200554Z AUTO 30012KT 10SM OVC039 M07/M13 A3002 RMK AO2 SLP178 60001 T10721133 11061 21078 55000
KMCD - Mackinac Island, Michigan, USA
Distance from station: NW 50mi, 80km
Updated: Wed, 20-Jan-2021 1:15am EST
Clear
Clear
 Wind from WNW
Wind: WNW 13 mph , 20 km/h, Gust: 20 mph , 31 km/h
Temperature: 18°F , -8°C
Wind Chill: 5°F , -15°C
Dew Point: 10°F , -12°C
Humidity: 73%
Barometer: 30.01 inHg , 1016.3 hPa
Clouds: Clear
Visibility: 10 miles , 16 km
2021/01/20 06:15 KMCD 200615Z AUTO 30011G17KT 10SM CLR M08/M12 A3001 RMK AO2 T10851117